Latest Weather Observations for Ballina

IDN60801

Issued at 2:05 am EDT Thursday 23 October 2014 (issued every 30 minutes, with the page automatically refreshed every 10 minutes)

About weather observations | Map of weather stations | Latest weather observations for NSW | Other Formats
Station Details ID: 058198 Name: BALLINA AIRPORT AWS Lat: -28.84 Lon: 153.56 Height: 1.3 m
Data from the previous 72 hours. | See also: Recent months at Ballina
Date/Time
EDT
Temp
°C
App
Temp
°C
Dew
Point
Rel
Hum
%
Delta-T
°C
Wind Press
QNH
hPa
Press
MSL
hPa
Rain
since 9 am
mm
Dir
 
Spd
km/h
Gust
km/h
Spd
kts
Gust
kts
23/02:00am 11.6 11.9 10.8 95 0.4 NW 0 0 0 0 1022.5 1022.5 0.0
23/01:30am 11.6 11.8 10.7 94 0.5 NW 0 0 0 0 1022.7 1022.7 0.0
23/01:00am 12.3 12.8 11.5 95 0.4 CALM 0 0 0 0 1023.0 1023.0 0.0
23/12:30am 12.4 12.9 11.5 94 0.5 CALM 0 0 0 0 1023.1 1023.1 0.0
23/12:00am 12.6 13.1 11.5 93 0.6 NW 0 0 0 0 1023.4 1023.4 0.0
 
Date/Time
EDT
Temp
°C
App
Temp
°C
Dew
Point
Rel
Hum
%
Delta-T
°C
Wind Press
QNH
hPa
Press
MSL
hPa
Rain
since 9 am
mm
Dir
 
Spd
km/h
Gust
km/h
Spd
kts
Gust
kts
22/11:30pm 13.1 13.8 12.2 94 0.5 CALM 0 0 0 0 1023.6 1023.6 0.0
22/11:00pm 12.9 13.5 11.8 93 0.6 CALM 0 0 0 0 1023.5 1023.5 0.0
22/10:30pm 13.3 13.9 12.0 92 0.7 NW 0 0 0 0 1023.6 1023.6 0.0
22/10:00pm 13.8 14.1 12.2 90 0.9 NNW 2 6 1 3 1023.8 1023.8 0.0
22/09:30pm 14.4 14.1 12.6 89 1.0 NNW 6 7 3 4 1023.9 1023.9 0.0
22/09:00pm 14.8 15.5 12.1 84 1.5 CALM 0 6 0 3 1023.8 1023.8 0.0
22/08:30pm 15.7 15.9 11.9 78 2.1 NE 2 6 1 3 1023.8 1023.8 0.0
22/08:00pm 16.2 15.6 11.6 74 2.5 NE 6 7 3 4 1023.8 1023.8 0.0
22/07:30pm 16.9 16.1 11.6 71 2.9 ENE 7 11 4 6 1023.7 1023.7 0.0
22/07:00pm 17.8 16.0 10.9 64 3.7 E 11 13 6 7 1023.5 1023.5 0.0
22/06:30pm 19.4 17.2 10.9 58 4.6 E 13 17 7 9 1023.5 1023.5 0.0
22/06:00pm 20.1 18.0 11.3 57 4.8 E 13 19 7 10 1023.4 1023.4 0.0
22/05:30pm 20.2 17.4 11.4 57 4.8 E 17 24 9 13 1023.3 1023.3 0.0
22/05:00pm 20.4 17.0 11.3 56 5.0 ESE 20 26 11 14 1023.3 1023.3 0.0
22/04:30pm 21.9 19.5 12.5 55 5.3 ESE 17 28 9 15 1023.1 1023.1 0.0
22/04:00pm 21.2 19.3 12.9 59 4.7 ESE 15 22 8 12 1023.2 1023.2 0.0
22/03:30pm 21.0 18.9 13.7 63 4.2 SE 17 24 9 13 1023.5 1023.5 0.0
22/03:00pm 20.6 18.2 12.8 61 4.4 E 17 22 9 12 1023.8 1023.8 0.0
22/02:30pm 21.2 18.9 13.1 60 4.6 SSE 17 26 9 14 1024.3 1024.3 0.0
22/02:00pm 21.7 18.8 13.9 61 4.5 SSE 22 30 12 16 1024.7 1024.7 0.0
22/01:30pm 21.0 17.5 13.4 62 4.4 SSE 24 32 13 17 1025.0 1025.0 0.0
22/01:00pm 21.2 17.3 12.1 56 5.1 SSE 24 32 13 17 1025.4 1025.4 0.0
22/12:30pm 21.3 17.8 13.5 61 4.5 SSE 24 35 13 19 1025.9 1025.9 0.0
22/12:00pm 21.2 18.4 13.1 60 4.6 SSE 20 30 11 16 1026.1 1026.1 0.0
22/11:30am 20.7 18.2 13.4 63 4.2 S 19 26 10 14 1026.3 1026.3 0.0
22/11:00am 19.8 18.1 13.5 67 3.6 SSW 15 20 8 11 1026.6 1026.6 0.0
22/10:30am 19.5 17.2 14.1 71 3.1 SSE 19 24 10 13 1026.8 1026.8 0.0
22/10:00am 18.2 17.4 16.0 87 1.3 SSW 15 28 8 15 1026.9 1026.9 0.0
22/09:30am 18.4 17.2 15.1 81 1.9 SW 15 19 8 10 1026.5 1026.5 0.0
22/09:00am 17.8 17.0 15.1 84 1.6 SW 13 19 7 10 1026.5 1026.5 5.8
22/08:30am 16.4 16.0 15.1 92 0.7 SW 11 17 6 9 1026.4 1026.4 5.8
22/08:00am 15.6 14.2 14.6 94 0.6 WSW 15 19 8 10 1026.3 1026.3 5.8
22/07:30am 15.4 14.0 14.6 95 0.5 WSW 15 22 8 12 1026.1 1026.1 5.6
22/07:00am 15.1 14.0 14.3 95 0.5 W 13 15 7 8 1026.1 1026.1 5.6
22/06:30am 14.8 14.1 14.2 96 0.3 W 11 15 6 8 1026.0 1026.0 5.6
22/06:00am 14.6 13.4 14.0 96 0.3 W 13 17 7 9 1025.7 1025.7 5.6
22/05:30am 14.6 13.8 14.0 96 0.3 WSW 11 15 6 8 1025.6 1025.6 5.6
22/05:00am 14.9 13.7 14.1 95 0.4 WSW 13 17 7 9 1025.7 1025.7 5.6
22/04:54am 15.1 14.0 14.3 95 0.5 WSW 13 19 7 10 1025.8 1025.8 5.4
22/04:30am 15.1 14.0 14.3 95 0.5 SW 13 19 7 10 1025.9 1025.9 4.0
22/04:24am 15.1 13.6 14.3 95 0.5 SW 15 19 8 10 1025.9 1025.9 3.6
22/04:00am 14.9 13.7 13.9 94 0.6 WSW 13 15 7 8 1025.9 1025.9 3.0
22/03:30am 15.2 14.1 14.4 95 0.5 WSW 13 15 7 8 1026.1 1026.1 3.0
22/03:00am 15.4 14.0 14.6 95 0.5 WSW 15 19 8 10 1026.4 1026.4 2.8
22/02:30am 15.5 14.5 14.5 94 0.6 WSW 13 17 7 9 1026.5 1026.5 2.8
22/02:00am 16.2 14.0 14.9 92 0.7 SW 20 26 11 14 1026.9 1026.9 2.8
22/01:50am 16.2 15.6 14.7 91 0.9 W 11 15 6 8 1027.0 1027.0 2.8
22/01:32am 16.2 15.5 14.4 89 1.0 SW 11 15 6 8 1027.3 1027.3 2.6
22/01:30am 16.2 15.5 14.4 89 1.0 SW 11 15 6 8 1027.4 1027.4 2.6
22/01:00am 16.5 16.2 14.3 87 1.2 WSW 9 13 5 7 1027.6 1027.6 2.4
22/12:30am 17.0 17.1 13.9 82 1.8 SSW 6 7 3 4 1028.1 1028.1 2.2
22/12:00am 17.1 15.8 13.8 81 1.9 SSW 13 17 7 9 1028.4 1028.4 2.2
 
Date/Time
EDT
Temp
°C
App
Temp
°C
Dew
Point
Rel
Hum
%
Delta-T
°C
Wind Press
QNH
hPa
Press
MSL
hPa
Rain
since 9 am
mm
Dir
 
Spd
km/h
Gust
km/h
Spd
kts
Gust
kts
21/11:30pm 17.4 15.4 13.9 80 2.0 SSW 17 22 9 12 1028.7 1028.7 2.2
21/11:00pm 17.4 15.0 14.5 83 1.7 S 20 35 11 19 1028.8 1028.8 2.2
21/10:30pm 18.0 15.6 13.9 77 2.3 S 19 30 10 16 1028.8 1028.8 2.2
21/10:00pm 17.6 15.9 13.7 78 2.2 ESE 15 28 8 15 1028.7 1028.7 2.2
21/09:30pm 18.2 15.7 13.5 74 2.7 S 19 24 10 13 1028.6 1028.6 2.2
21/09:00pm 17.4 15.6 13.3 77 2.3 SW 15 20 8 11 1028.6 1028.6 2.2
21/08:30pm 17.8 15.3 13.5 76 2.4 SSW 19 26 10 14 1028.4 1028.4 2.2
21/08:00pm 18.6 16.3 13.0 70 3.1 S 17 26 9 14 1028.1 1028.1 2.2
21/07:30pm 18.6 16.0 13.2 71 3.0 S 19 28 10 15 1027.9 1027.9 2.2
21/07:00pm 18.6 15.5 12.1 66 3.6 S 20 30 11 16 1027.7 1027.7 2.2
21/06:30pm 18.7 16.1 13.8 73 2.8 S 20 28 11 15 1027.5 1027.5 2.2
21/06:00pm 18.8 16.2 13.9 73 2.8 S 20 28 11 15 1027.3 1027.3 2.2
21/05:30pm 19.2 15.7 13.4 69 3.3 S 24 35 13 19 1027.2 1027.2 2.2
21/05:00pm 19.2 15.8 13.8 71 3.1 S 24 41 13 22 1027.2 1027.2 2.2
21/04:35pm 18.7 14.8 14.4 76 2.5 S 28 46 15 25 1027.2 1027.2 2.2
21/04:30pm 18.8 14.3 13.9 73 2.8 S 30 46 16 25 1027.2 1027.2 2.2
21/04:00pm 19.8 15.4 14.0 69 3.3 S 30 43 16 23 1027.2 1027.2 2.2
21/03:37pm 20.1 16.1 14.0 68 3.5 S 28 46 15 25 1027.2 1027.2 2.2
21/03:30pm 20.4 16.5 14.3 68 3.5 S 28 37 15 20 1027.3 1027.3 2.2
21/03:00pm 20.1 15.7 14.0 68 3.5 S 30 44 16 24 1027.3 1027.3 2.2
21/02:30pm 20.6 16.1 14.9 70 3.3 S 32 43 17 23 1027.6 1027.6 2.2
21/02:00pm 21.2 18.1 15.7 71 3.3 S 26 39 14 21 1027.8 1027.8 2.2
21/01:30pm 19.5 15.6 14.5 73 2.9 S 28 43 15 23 1028.2 1028.2 2.2
21/01:00pm 19.6 16.9 15.7 78 2.3 S 24 37 13 20 1028.5 1028.5 2.2
21/12:30pm 19.1 16.2 16.1 83 1.8 SSW 26 39 14 21 1028.7 1028.7 2.2
21/12:07pm 17.9 15.9 16.4 91 0.9 SSW 22 35 12 19 1028.8 1028.8 2.2
21/12:00pm 17.4 15.6 15.9 91 0.9 SSW 20 35 11 19 1028.9 1028.9 2.0
21/11:48am 17.6 15.4 15.9 90 1.0 SSW 22 32 12 17 1029.0 1029.0 1.8
21/11:30am 19.1 16.3 16.3 84 1.7 S 26 41 14 22 1028.9 1028.9 1.6
21/11:00am 18.7 17.8 16.8 89 1.1 SSW 17 28 9 15 1028.9 1028.9 1.6
21/10:30am 18.1 16.0 16.1 88 1.2 SSW 22 32 12 17 1029.1 1029.1 1.4
21/10:27am 18.3 16.7 16.5 89 1.1 SSW 20 32 11 17 1029.1 1029.1 1.4
21/10:00am 17.8 14.9 16.0 89 1.1 S 26 35 14 19 1029.2 1029.2 0.8
21/09:56am 18.2 15.6 16.0 87 1.3 S 24 35 13 19 1029.2 1029.2 0.4
21/09:30am 19.6 16.5 15.5 77 2.4 SSW 26 43 14 23 1028.8 1028.8 0.0
21/09:00am 20.5 17.8 13.5 64 4.0 S 20 32 11 17 1028.5 1028.5 4.4
21/08:30am 20.1 19.0 15.3 74 2.8 SSW 15 24 8 13 1028.2 1028.2 4.4
21/08:00am 20.1 17.3 13.3 65 3.9 S 20 33 11 18 1027.9 1027.9 4.4
21/07:30am 19.9 16.7 13.1 65 3.9 S 22 32 12 17 1027.6 1027.6 4.4
21/07:00am 19.9 15.9 12.9 64 3.9 S 26 39 14 21 1027.4 1027.4 4.4
21/06:30am 19.8 15.8 14.0 69 3.3 S 28 35 15 19 1027.0 1027.0 4.4
21/06:00am 19.8 15.4 13.0 65 3.8 S 28 41 15 22 1026.6 1026.6 4.4
21/05:30am 19.7 15.6 13.9 69 3.3 S 28 41 15 22 1026.4 1026.4 4.4
21/05:00am 20.0 15.6 14.1 69 3.4 S 30 39 16 21 1026.1 1026.1 4.4
21/04:30am 19.9 16.8 14.5 71 3.1 S 24 39 13 21 1025.9 1025.9 4.4
21/04:00am 20.0 16.9 14.6 71 3.1 S 24 37 13 20 1026.0 1026.0 4.4
21/03:30am 19.8 16.8 14.8 73 2.9 S 24 35 13 19 1026.1 1026.1 4.4
21/03:00am 19.9 16.3 15.3 75 2.7 S 28 37 15 20 1026.1 1026.1 4.4
21/02:30am 19.7 16.9 16.3 81 2.0 SSE 26 35 14 19 1026.3 1026.3 4.4
21/02:00am 19.8 17.8 17.4 86 1.5 SSE 24 33 13 18 1026.4 1026.4 4.4
21/01:43am 19.6 17.8 17.9 90 1.0 SSE 24 32 13 17 1026.4 1026.4 4.4
21/01:30am 19.3 18.4 18.1 93 0.7 SE 20 26 11 14 1026.4 1026.4 4.2
21/01:15am 19.1 19.4 17.9 93 0.7 SW 13 19 7 10 1026.4 1026.4 3.0
21/01:08am 19.0 18.9 17.8 93 0.7 SW 15 20 8 11 1026.5 1026.5 2.0
21/01:00am 19.0 18.1 17.7 92 0.8 SW 19 26 10 14 1026.6 1026.6 2.0
21/12:30am 19.0 18.1 17.7 92 0.8 SSW 19 33 10 18 1027.1 1027.1 2.0
21/12:28am 18.9 17.9 17.6 92 0.8 SSW 19 33 10 18 1027.1 1027.1 2.0
21/12:27am 18.9 17.9 17.6 92 0.8 SSW 19 30 10 16 1027.2 1027.2 2.0
21/12:11am 18.8 17.6 17.5 92 0.8 SSW 20 30 11 16 1027.4 1027.4 2.0
21/12:10am 18.7 17.5 17.4 92 0.8 SSW 20 30 11 16 1027.4 1027.4 2.0
21/12:02am 18.9 18.3 17.6 92 0.8 SSW 17 28 9 15 1027.4 1027.4 2.0
21/12:00am 18.9 18.2 17.4 91 0.9 SSW 17 26 9 14 1027.4 1027.4 2.0
 
Date/Time
EDT
Temp
°C
App
Temp
°C
Dew
Point
Rel
Hum
%
Delta-T
°C
Wind Press
QNH
hPa
Press
MSL
hPa
Rain
since 9 am
mm
Dir
 
Spd
km/h
Gust
km/h
Spd
kts
Gust
kts
20/11:52pm 18.9 18.6 17.4 91 0.9 SSW 15 24 8 13 1027.5 1027.5 1.8
20/11:43pm 19.0 17.3 17.1 89 1.2 SSW 22 32 12 17 1027.7 1027.7 1.8
20/11:30pm 19.2 17.9 16.8 86 1.4 SSW 19 28 10 15 1027.6 1027.6 1.4
20/11:00pm 19.2 18.1 17.2 88 1.2 SSW 19 32 10 17 1027.7 1027.7 1.4
20/10:30pm 19.2 17.9 17.3 89 1.2 S 20 28 11 15 1027.6 1027.6 1.4
20/10:19pm 19.2 18.6 17.5 90 1.0 SSW 17 28 9 15 1027.5 1027.5 1.4
20/10:01pm 19.5 17.5 17.5 88 1.2 S 24 43 13 23 1027.6 1027.6 1.2
20/10:00pm 19.5 17.5 17.5 88 1.2 S 24 43 13 23 1027.6 1027.6 1.0
20/09:30pm 19.7 18.6 17.7 88 1.2 S 20 30 11 16 1027.4 1027.4 0.6
20/09:21pm 19.5 19.0 17.8 90 1.0 S 17 28 9 15 1027.4 1027.4 0.6
20/09:19pm 19.6 19.2 18.1 91 0.9 S 17 28 9 15 1027.4 1027.4 0.6
20/09:06pm 19.3 18.7 17.6 90 1.0 S 17 28 9 15 1027.2 1027.2 0.6
20/09:00pm 19.5 17.2 17.6 89 1.2 S 26 39 14 21 1027.2 1027.2 0.4
20/08:57pm 19.7 17.8 17.7 88 1.2 S 24 39 13 21 1027.2 1027.2 0.4
20/08:30pm 20.3 17.8 17.1 82 1.9 S 26 35 14 19 1026.7 1026.7 0.0
20/08:00pm 20.5 19.6 14.8 70 3.3 S 13 19 7 10 1026.4 1026.4 0.0
20/07:30pm 20.2 18.9 14.8 71 3.2 S 15 19 8 10 1026.0 1026.0 0.0
20/07:00pm 19.7 18.9 15.1 75 2.7 SSE 13 17 7 9 1025.5 1025.5 0.0
20/06:30pm 20.2 19.0 13.9 67 3.6 S 13 20 7 11 1025.3 1025.3 0.0
20/06:00pm 21.3 19.4 13.0 59 4.7 S 15 19 8 10 1025.0 1025.0 0.0
20/05:30pm 22.4 20.1 12.9 55 5.4 SSE 17 22 9 12 1024.4 1024.4 0.0
20/05:00pm 22.6 21.5 13.1 55 5.4 E 11 15 6 8 1024.0 1024.0 0.0
20/04:30pm 22.8 21.2 13.8 57 5.2 ENE 15 19 8 10 1023.6 1023.6 0.0
20/04:00pm 23.4 22.2 14.1 56 5.4 ENE 13 19 7 10 1023.3 1023.3 0.0
20/03:30pm 23.1 21.4 14.7 59 5.0 NE 17 22 9 12 1023.0 1023.0 0.0
20/03:00pm 23.1 20.9 14.4 58 5.1 NE 19 26 10 14 1023.2 1023.2 0.0
20/02:30pm 23.1 20.5 14.9 60 4.9 NE 22 30 12 16 1023.5 1023.5 0.0
20/02:00pm 23.0 19.9 14.6 59 4.9 NNE 24 32 13 17 1023.6 1023.6 0.0
20/01:30pm 23.7 20.4 14.9 57 5.2 NE 26 33 14 18 1023.8 1023.8 0.0
20/01:00pm 23.3 20.2 14.6 58 5.1 NE 24 32 13 17 1024.0 1024.0 0.0
20/12:30pm 23.4 20.0 13.8 54 5.6 NE 24 30 13 16 1024.1 1024.1 0.0
20/12:00pm 23.4 20.3 13.3 53 5.8 NE 22 30 12 16 1024.4 1024.4 0.0
20/11:30am 22.9 19.2 12.8 53 5.8 NE 24 32 13 17 1024.7 1024.7 0.0
20/11:00am 23.2 20.2 13.7 55 5.5 ENE 22 28 12 15 1024.8 1024.8 0.0
20/10:30am 23.1 21.4 13.6 55 5.5 NE 15 22 8 12 1025.1 1025.1 0.0
20/10:00am 22.2 20.5 12.5 54 5.5 NNE 13 20 7 11 1025.4 1025.4 0.0
20/09:30am 21.6 20.5 13.2 59 4.8 NNE 11 17 6 9 1025.2 1025.2 0.0
20/09:00am 20.8 20.1 13.3 62 4.3 N 9 19 5 10 1025.3 1025.3 0.0
20/08:30am 19.4 19.2 13.1 67 3.6 NW 6 9 3 5 1025.5 1025.5 0.0
20/08:00am 16.7 16.8 12.7 77 2.2 NNW 4 7 2 4 1025.2 1025.2 0.0
20/07:30am 14.6 15.7 13.5 93 0.6 CALM 0 0 0 0 1025.2 1025.2 0.0
20/07:00am 12.7 13.0 12.2 97 0.3 N 2 4 1 2 1025.1 1025.1 0.0
20/06:30am 10.2 10.1 9.6 96 0.3 CALM 0 0 0 0 1025.0 1025.0 0.0
20/06:00am 9.9 8.6 9.1 95 0.4 N 6 7 3 4 1024.7 1024.7 0.0
20/05:30am 10.6 10.7 10.0 96 0.3 CALM 0 6 0 3 1024.6 1024.6 0.0
20/05:00am 10.7 10.8 10.1 96 0.3 CALM 0 0 0 0 1024.7 1024.7 0.0
20/04:30am 10.6 10.6 9.8 95 0.4 CALM 0 0 0 0 1024.6 1024.6 0.0
20/04:00am 10.5 10.5 9.7 95 0.4 CALM 0 0 0 0 1024.6 1024.6 0.0
20/03:30am 10.9 11.0 10.1 95 0.4 CALM 0 0 0 0 1024.7 1024.7 0.0
20/03:00am 11.2 11.4 10.4 95 0.4 CALM 0 0 0 0 1024.9 1024.9 0.0
20/02:30am 11.7 12.0 10.9 95 0.4 CALM 0 0 0 0 1025.2 1025.2 0.0
20/02:23am 11.8 12.1 11.0 95 0.4 CALM 0 0 0 0 1025.3 1025.3 0.0

Other Formats:

Comma delimited format used in spreadsheet applications
http://www.bom.gov.au/fwo/IDN60801/IDN60801.94596.axf

JavaScript Object Notation format (JSON) in row-major order
http://www.bom.gov.au/fwo/IDN60801/IDN60801.94596.json